Suhaja, Russia
Current Conditions -  °F | °C
As of 11:00 AM on Saturday 25 Oct 2014 (Local Time) from UIUU Reporting Station
Broken Clouds Broken Clouds  
Wind Chill: 11°   Ceiling: 3000
Heat Index: 25°   Visibility: 6mi
Dew Point: 12°   Wind: 18mph
Humidity: 59%   Direction: 320°NW
Pressure: 30.27"   Gusts: 29mph
Location:  52.57°N, 107.13°E
Report Text: UIUU 250300Z 32008G13MPS 9999 BKN030CB M04/M11 Q1025 TEMPO30010G16MPS RMK QFE724/0966 26420250
Loading
Personal Weather Stations






























Interactive Weather Map
Tropical Storm Tracking
New forecast layout! Learn more

10-Day Weather Forecast

Advertisements
Track Severe Weather on mobile